createdAt,value
2023-05-06T00:01:01.303Z,5.47
2023-05-06T00:03:28.569Z,5.55
2023-05-06T00:05:55.537Z,4.63
2023-05-06T00:08:22.318Z,5.68
2023-05-06T00:10:48.849Z,5.65
2023-05-06T00:13:16.077Z,7.32
2023-05-06T00:15:42.674Z,4.75
2023-05-06T00:20:36.265Z,7.20
2023-05-06T00:23:03.223Z,7.53
2023-05-06T00:27:56.292Z,9.23
2023-05-06T00:32:49.730Z,6.88
2023-05-06T00:37:49.009Z,11.75
2023-05-06T00:40:15.848Z,9.93
2023-05-06T00:42:42.219Z,8.82
2023-05-06T00:45:09.331Z,8.23
2023-05-06T00:47:36.475Z,7.97
2023-05-06T00:50:03.136Z,10.50
2023-05-06T00:52:30.203Z,7.82
2023-05-06T00:54:57.207Z,6.85
2023-05-06T00:57:24.622Z,6.35
2023-05-06T00:59:51.136Z,9.23
2023-05-06T01:02:17.733Z,10.07
2023-05-06T01:04:45.185Z,7.95
2023-05-06T01:07:20.920Z,8.10
2023-05-06T01:09:55.836Z,7.47
2023-05-06T01:12:43.882Z,5.95
2023-05-06T01:15:16.491Z,6.50
2023-05-06T01:17:46.654Z,6.82
2023-05-06T01:20:15.130Z,8.02
2023-05-06T01:22:42.296Z,5.70
2023-05-06T01:25:18.497Z,6.65
2023-05-06T01:27:45.390Z,5.47
2023-05-06T01:30:13.319Z,5.22
2023-05-06T01:32:50.294Z,7.78
2023-05-06T01:35:40.789Z,5.40
2023-05-06T01:38:18.579Z,8.57
2023-05-06T01:40:49.893Z,9.52
2023-05-06T01:43:18.482Z,8.57
2023-05-06T01:45:49.415Z,7.68
2023-05-06T01:48:17.034Z,9.30
2023-05-06T01:50:43.619Z,8.25
2023-05-06T01:53:10.545Z,7.80
2023-05-06T01:55:37.003Z,7.95
2023-05-06T01:58:03.883Z,9.50
2023-05-06T02:02:57.088Z,8.25
2023-05-06T02:05:23.943Z,7.45
2023-05-06T02:07:51.425Z,8.68
2023-05-06T02:10:19.046Z,8.27
2023-05-06T02:12:45.960Z,9.05
2023-05-06T02:15:12.695Z,8.13
2023-05-06T02:17:39.170Z,6.97
2023-05-06T02:20:06.818Z,8.70
2023-05-06T02:22:33.878Z,7.38
2023-05-06T02:25:01.056Z,8.32
2023-05-06T02:27:27.646Z,9.45
2023-05-06T02:29:54.184Z,7.85
2023-05-06T02:32:21.018Z,6.32
2023-05-06T02:34:47.668Z,4.60
2023-05-06T02:37:14.233Z,5.53
2023-05-06T02:42:07.458Z,5.35
2023-05-06T02:44:33.892Z,4.32
2023-05-06T02:47:00.611Z,4.22
2023-05-06T02:49:27.526Z,6.18
2023-05-06T02:51:54.241Z,5.75
2023-05-06T02:54:21.047Z,6.45
2023-05-06T02:59:14.303Z,4.40
2023-05-06T03:01:40.894Z,6.43
2023-05-06T03:04:08.039Z,5.50
2023-05-06T03:06:35.136Z,5.45
2023-05-06T03:09:02.168Z,5.57
2023-05-06T03:11:31.426Z,5.22
2023-05-06T03:13:58.380Z,4.90
2023-05-06T03:16:25.106Z,5.25
2023-05-06T03:21:18.305Z,4.40
2023-05-06T03:23:44.954Z,4.47
2023-05-06T03:26:11.421Z,5.05
2023-05-06T03:28:38.126Z,5.60
2023-05-06T03:31:04.771Z,4.70
2023-05-06T03:33:31.242Z,3.35
2023-05-06T03:35:57.865Z,5.30
2023-05-06T03:38:26.184Z,5.78
2023-05-06T03:40:53.400Z,6.40
2023-05-06T03:43:20.004Z,5.78
2023-05-06T03:45:46.801Z,3.85
2023-05-06T03:48:13.455Z,5.78
2023-05-06T03:50:40.665Z,6.38
2023-05-06T03:53:07.250Z,5.32
2023-05-06T03:55:33.998Z,6.80
2023-05-06T03:58:01.277Z,4.13
2023-05-06T04:00:28.435Z,4.43
2023-05-06T04:02:55.198Z,3.88
2023-05-06T04:05:21.747Z,4.80
2023-05-06T04:07:48.832Z,5.15
2023-05-06T04:10:15.469Z,5.47
2023-05-06T04:12:41.939Z,5.30
2023-05-06T04:15:09.105Z,5.00
2023-05-06T04:17:36.068Z,6.13
2023-05-06T04:22:38.702Z,4.95
2023-05-06T04:27:32.332Z,4.82
2023-05-06T04:29:58.924Z,5.22
2023-05-06T04:32:25.504Z,5.80
2023-05-06T04:34:53.514Z,8.63
2023-05-06T04:37:21.053Z,6.13
2023-05-06T04:39:47.618Z,5.75
2023-05-06T04:42:16.011Z,4.90
2023-05-06T04:44:43.513Z,5.10
2023-05-06T04:47:10.123Z,6.30
2023-05-06T04:49:36.917Z,5.18
2023-05-06T04:54:30.751Z,5.45
2023-05-06T04:59:24.171Z,5.47
2023-05-06T05:01:50.755Z,5.97
2023-05-06T05:04:17.737Z,5.32
2023-05-06T05:09:11.113Z,6.97
2023-05-06T05:11:40.593Z,9.15
2023-05-06T05:14:07.099Z,6.05
2023-05-06T05:16:33.686Z,5.57
2023-05-06T05:19:03.320Z,6.10
2023-05-06T05:21:30.497Z,7.65
2023-05-06T05:26:23.692Z,8.45
2023-05-06T05:28:50.326Z,9.32
2023-05-06T05:31:17.056Z,9.85
2023-05-06T05:33:44.060Z,9.95
2023-05-06T05:38:39.035Z,9.45
2023-05-06T05:41:05.672Z,7.53
2023-05-06T05:43:32.658Z,9.35
2023-05-06T05:48:25.774Z,10.73
2023-05-06T05:50:52.494Z,9.60
2023-05-06T05:53:19.230Z,9.63
2023-05-06T05:55:45.662Z,8.82
2023-05-06T05:58:13.333Z,7.78
2023-05-06T06:03:07.050Z,8.15
2023-05-06T06:05:33.742Z,9.80
2023-05-06T06:08:03.627Z,7.55
2023-05-06T06:10:30.620Z,8.43
2023-05-06T06:12:57.619Z,7.82
2023-05-06T06:17:53.657Z,7.32
2023-05-06T06:20:20.597Z,7.43
2023-05-06T06:22:47.174Z,7.03
2023-05-06T06:25:14.214Z,6.88
2023-05-06T06:27:40.952Z,8.85
2023-05-06T06:30:07.946Z,6.78
2023-05-06T06:32:35.670Z,8.13
2023-05-06T06:37:29.385Z,7.00
2023-05-06T06:39:55.916Z,6.20
2023-05-06T06:42:22.458Z,6.32
2023-05-06T06:44:49.916Z,5.47
2023-05-06T06:47:16.309Z,7.35
2023-05-06T06:49:43.211Z,4.72
2023-05-06T06:52:09.606Z,6.75
2023-05-06T06:54:37.974Z,5.28
2023-05-06T06:57:08.519Z,7.32
2023-05-06T06:59:35.554Z,5.50
2023-05-06T07:02:03.094Z,5.78
2023-05-06T07:04:30.692Z,5.78
2023-05-06T07:06:57.200Z,5.40
2023-05-06T07:09:24.062Z,5.00
2023-05-06T07:11:50.513Z,5.75
2023-05-06T07:14:16.900Z,6.78
2023-05-06T07:19:13.181Z,4.22
2023-05-06T07:21:39.827Z,4.10
2023-05-06T07:24:06.808Z,4.07
2023-05-06T07:26:36.991Z,3.22
2023-05-06T07:29:04.563Z,3.65
2023-05-06T07:31:34.261Z,2.83
2023-05-06T07:34:01.607Z,3.58
2023-05-06T07:36:31.343Z,2.55
2023-05-06T07:38:57.866Z,2.15
2023-05-06T07:43:51.368Z,2.03
2023-05-06T07:46:18.056Z,1.95
2023-05-06T07:51:11.217Z,2.13
2023-05-06T07:53:40.018Z,2.17
2023-05-06T07:56:06.761Z,2.08
2023-05-06T07:58:33.360Z,1.20
2023-05-06T08:01:00.164Z,2.03
2023-05-06T08:03:27.341Z,2.92
2023-05-06T08:05:55.180Z,2.33
2023-05-06T08:08:23.603Z,1.40
2023-05-06T08:10:50.108Z,1.13
2023-05-06T08:13:16.540Z,0.95
2023-05-06T08:18:21.023Z,1.10
2023-05-06T08:20:49.085Z,1.10
2023-05-06T08:23:15.620Z,1.38
2023-05-06T08:28:08.998Z,1.00
2023-05-06T08:30:35.802Z,1.20
2023-05-06T08:33:02.529Z,1.00
2023-05-06T08:35:29.219Z,2.20
2023-05-06T08:37:56.157Z,0.93
2023-05-06T08:40:24.081Z,1.23
2023-05-06T08:42:50.748Z,0.95
2023-05-06T08:45:17.923Z,1.42
2023-05-06T08:47:45.054Z,1.40
2023-05-06T08:50:12.621Z,0.85
2023-05-06T08:52:39.850Z,1.33
2023-05-06T08:55:07.734Z,1.40
2023-05-06T08:57:34.958Z,1.45
2023-05-06T09:00:02.260Z,1.02
2023-05-06T09:02:29.485Z,0.70
2023-05-06T09:04:56.889Z,0.55
2023-05-06T09:07:24.173Z,0.73
2023-05-06T09:09:51.525Z,1.50
2023-05-06T09:12:18.454Z,1.23
2023-05-06T09:14:46.571Z,0.65
2023-05-06T09:17:26.327Z,1.00
2023-05-06T09:19:54.509Z,1.55
2023-05-06T09:22:22.129Z,1.10
2023-05-06T09:24:56.657Z,1.00
2023-05-06T09:27:24.081Z,1.52
2023-05-06T09:30:07.389Z,1.80
2023-05-06T09:32:37.480Z,2.05
2023-05-06T09:35:07.424Z,1.80
2023-05-06T09:37:34.410Z,0.57
2023-05-06T09:42:31.256Z,1.48
2023-05-06T09:45:01.938Z,0.95
2023-05-06T09:47:34.074Z,1.17
2023-05-06T09:50:02.706Z,1.42
2023-05-06T09:52:30.759Z,0.75
2023-05-06T09:54:57.841Z,1.15
2023-05-06T09:57:25.761Z,2.38
2023-05-06T09:59:54.059Z,2.85
2023-05-06T10:02:22.813Z,0.88
2023-05-06T10:04:50.914Z,1.20
2023-05-06T10:07:22.601Z,1.50
2023-05-06T10:09:51.333Z,1.25
2023-05-06T10:12:19.868Z,1.33
2023-05-06T10:14:47.270Z,1.33
2023-05-06T10:17:14.269Z,2.10
2023-05-06T10:19:45.364Z,0.77
2023-05-06T10:22:39.197Z,0.82
2023-05-06T10:25:13.041Z,0.80
2023-05-06T10:27:41.886Z,1.20
2023-05-06T10:30:10.260Z,1.58
2023-05-06T10:32:42.870Z,1.05
2023-05-06T10:37:51.580Z,1.50
2023-05-06T10:40:19.026Z,1.27
2023-05-06T10:42:45.700Z,3.38
2023-05-06T10:45:15.160Z,2.10
2023-05-06T10:47:56.809Z,1.58
2023-05-06T10:50:27.527Z,1.88
2023-05-06T10:52:56.296Z,1.90
2023-05-06T10:55:37.776Z,1.13
2023-05-06T10:58:13.693Z,1.40
2023-05-06T11:00:44.153Z,1.73
2023-05-06T11:03:13.310Z,2.05
2023-05-06T11:05:51.455Z,2.35
2023-05-06T11:10:48.952Z,2.22
2023-05-06T11:13:27.281Z,3.03
2023-05-06T11:15:55.753Z,1.92
2023-05-06T11:18:26.751Z,2.47
2023-05-06T11:21:02.672Z,1.08
2023-05-06T11:23:52.223Z,1.33
2023-05-06T11:26:18.777Z,1.63
2023-05-06T11:28:47.521Z,2.45
2023-05-06T11:31:14.786Z,2.35
2023-05-06T11:33:46.946Z,1.00
2023-05-06T11:36:21.125Z,4.47
2023-05-06T11:38:48.030Z,7.38
2023-05-06T11:41:15.850Z,1.50
2023-05-06T11:43:47.397Z,1.33
2023-05-06T11:46:14.056Z,2.08
2023-05-06T11:51:08.162Z,1.77
2023-05-06T11:53:34.982Z,2.08
2023-05-06T11:56:01.742Z,1.73
2023-05-06T11:58:29.355Z,2.08
2023-05-06T12:00:58.436Z,1.10
2023-05-06T12:03:27.349Z,0.90
2023-05-06T12:05:55.351Z,0.90
2023-05-06T12:08:28.486Z,1.42
2023-05-06T12:10:59.282Z,1.48
2023-05-06T12:13:27.689Z,1.77
2023-05-06T12:15:58.249Z,2.35
2023-05-06T12:18:26.153Z,1.52
2023-05-06T12:20:55.084Z,1.30
2023-05-06T12:23:22.075Z,1.30
2023-05-06T12:26:04.069Z,2.72
2023-05-06T12:28:32.866Z,1.65
2023-05-06T12:31:00.664Z,0.80
2023-05-06T12:33:27.372Z,0.95
2023-05-06T12:38:23.885Z,2.45
2023-05-06T12:40:54.923Z,2.33
2023-05-06T12:43:31.455Z,1.13
2023-05-06T12:46:06.375Z,2.17
2023-05-06T12:48:33.864Z,1.02
2023-05-06T12:51:00.321Z,1.42
2023-05-06T12:53:33.143Z,2.17
2023-05-06T12:55:59.773Z,1.10
2023-05-06T12:58:26.386Z,1.90
2023-05-06T13:00:52.979Z,1.45
2023-05-06T13:03:20.083Z,1.23
2023-05-06T13:05:49.816Z,1.40
2023-05-06T13:08:16.409Z,1.23
2023-05-06T13:10:43.219Z,1.90
2023-05-06T13:13:09.875Z,0.93
2023-05-06T13:15:37.579Z,1.77
2023-05-06T13:18:05.048Z,1.35
2023-05-06T13:20:32.360Z,0.88
2023-05-06T13:22:59.230Z,1.33
2023-05-06T13:25:25.821Z,1.25
2023-05-06T13:27:52.963Z,2.33
2023-05-06T13:30:19.623Z,1.85
2023-05-06T13:32:47.337Z,2.08
2023-05-06T13:35:14.382Z,1.42
2023-05-06T13:37:40.969Z,1.30
2023-05-06T13:40:08.523Z,1.17
2023-05-06T13:42:36.184Z,1.60
2023-05-06T13:45:02.691Z,1.42
2023-05-06T13:47:29.568Z,2.47
2023-05-06T13:52:22.768Z,1.35
2023-05-06T13:54:49.624Z,1.45
2023-05-06T13:57:17.367Z,1.60
2023-05-06T13:59:44.100Z,1.55
2023-05-06T14:02:11.540Z,1.00
2023-05-06T14:04:38.179Z,0.88
2023-05-06T14:07:05.236Z,1.02
2023-05-06T14:09:31.733Z,1.50
2023-05-06T14:11:58.237Z,0.60
2023-05-06T14:16:54.407Z,0.95
2023-05-06T14:19:21.316Z,1.05
2023-05-06T14:21:47.773Z,1.95
2023-05-06T14:26:41.263Z,0.90
2023-05-06T14:29:07.816Z,1.35
2023-05-06T14:34:03.064Z,2.95
2023-05-06T14:36:29.874Z,1.92
2023-05-06T14:38:56.643Z,1.92
2023-05-06T14:41:23.721Z,4.05
2023-05-06T14:43:50.717Z,3.17
2023-05-06T14:46:17.740Z,4.40
2023-05-06T14:48:45.356Z,3.60
2023-05-06T14:51:11.993Z,2.65
2023-05-06T14:53:38.861Z,1.20
2023-05-06T14:58:33.754Z,1.50
2023-05-06T15:01:00.725Z,2.67
2023-05-06T15:03:27.390Z,1.10
2023-05-06T15:05:53.932Z,1.95
2023-05-06T15:08:20.711Z,4.05
2023-05-06T15:10:49.662Z,2.25
2023-05-06T15:13:16.212Z,2.00
2023-05-06T15:15:42.871Z,1.85
2023-05-06T15:18:10.612Z,1.25
2023-05-06T15:20:37.019Z,1.42
2023-05-06T15:23:03.812Z,4.28
2023-05-06T15:28:04.352Z,2.55
2023-05-06T15:30:30.992Z,1.45
2023-05-06T15:32:57.561Z,1.70
2023-05-06T15:35:24.224Z,0.98
2023-05-06T15:40:25.399Z,7.97
2023-05-06T15:42:52.414Z,0.90
2023-05-06T15:45:21.611Z,1.50
2023-05-06T15:47:48.509Z,1.35
2023-05-06T15:50:28.906Z,1.27
2023-05-06T15:52:58.957Z,1.30
2023-05-06T15:55:26.212Z,1.42
2023-05-06T15:57:54.695Z,1.55
2023-05-06T16:00:22.025Z,1.67
2023-05-06T16:03:09.830Z,2.20
2023-05-06T16:05:38.309Z,2.03
2023-05-06T16:08:05.321Z,2.40
2023-05-06T16:10:31.858Z,1.25
2023-05-06T16:15:25.349Z,0.98
2023-05-06T16:17:51.850Z,1.58
2023-05-06T16:20:18.479Z,2.03
2023-05-06T16:22:49.950Z,2.90
2023-05-06T16:25:16.477Z,1.50
2023-05-06T16:27:43.040Z,2.67
2023-05-06T16:30:10.115Z,2.53
2023-05-06T16:32:37.170Z,3.58
2023-05-06T16:35:03.757Z,4.07
2023-05-06T16:37:31.295Z,1.90
2023-05-06T16:39:58.013Z,4.35
2023-05-06T16:42:24.581Z,2.58
2023-05-06T16:44:51.510Z,2.50
2023-05-06T16:47:23.143Z,3.15
2023-05-06T16:49:50.235Z,2.58
2023-05-06T16:52:17.726Z,2.50
2023-05-06T16:54:44.548Z,2.80
2023-05-06T16:57:11.147Z,1.95
2023-05-06T16:59:38.002Z,3.42
2023-05-06T17:02:04.917Z,1.98
2023-05-06T17:06:58.028Z,1.92
2023-05-06T17:11:51.272Z,2.92
2023-05-06T17:14:19.696Z,1.17
2023-05-06T17:16:47.181Z,3.30
2023-05-06T17:19:13.690Z,1.75
2023-05-06T17:21:40.711Z,1.67
2023-05-06T17:24:07.236Z,1.17
2023-05-06T17:26:34.849Z,1.77
2023-05-06T17:29:01.518Z,1.13
2023-05-06T17:31:28.531Z,1.98
2023-05-06T17:33:56.313Z,2.78
2023-05-06T17:36:23.354Z,1.17
2023-05-06T17:39:01.038Z,2.00
2023-05-06T17:41:27.853Z,1.73
2023-05-06T17:43:54.385Z,2.78
2023-05-06T17:46:21.031Z,1.63
2023-05-06T17:48:48.961Z,1.52
2023-05-06T17:51:15.756Z,2.55
2023-05-06T17:53:42.515Z,2.60
2023-05-06T17:56:09.359Z,1.27
2023-05-06T17:58:35.934Z,1.60
2023-05-06T18:01:02.897Z,1.42
2023-05-06T18:03:30.037Z,1.55
2023-05-06T18:05:57.021Z,1.95
2023-05-06T18:08:23.830Z,2.13
2023-05-06T18:10:50.372Z,2.03
2023-05-06T18:13:17.178Z,2.70
2023-05-06T18:15:44.071Z,2.38
2023-05-06T18:18:10.603Z,3.58
2023-05-06T18:20:37.436Z,2.42
2023-05-06T18:23:03.908Z,1.23
2023-05-06T18:25:30.427Z,1.60
2023-05-06T18:27:57.727Z,1.27
2023-05-06T18:30:24.323Z,1.70
2023-05-06T18:35:20.071Z,2.35
2023-05-06T18:40:14.576Z,1.90
2023-05-06T18:42:41.262Z,2.97
2023-05-06T18:47:36.865Z,1.30
2023-05-06T18:50:03.786Z,1.05
2023-05-06T18:52:30.684Z,1.63
2023-05-06T18:54:57.225Z,1.60
2023-05-06T18:57:26.698Z,3.08
2023-05-06T18:59:53.347Z,1.17
2023-05-06T19:02:19.722Z,1.70
2023-05-06T19:04:46.114Z,1.30
2023-05-06T19:07:14.354Z,2.35
2023-05-06T19:09:42.978Z,1.30
2023-05-06T19:12:09.449Z,1.20
2023-05-06T19:14:35.895Z,2.78
2023-05-06T19:17:05.142Z,1.42
2023-05-06T19:19:31.845Z,1.52
2023-05-06T19:21:59.681Z,1.38
2023-05-06T19:24:26.642Z,1.90
2023-05-06T19:26:53.264Z,2.03
2023-05-06T19:31:46.579Z,3.13
2023-05-06T19:34:13.428Z,1.20
2023-05-06T19:36:39.988Z,2.88
2023-05-06T19:39:06.609Z,2.83
2023-05-06T19:41:33.460Z,2.65
2023-05-06T19:43:59.905Z,1.50
2023-05-06T19:46:27.376Z,1.50
2023-05-06T19:48:54.383Z,1.80
2023-05-06T19:51:21.281Z,0.95
2023-05-06T19:53:48.940Z,1.63
2023-05-06T19:56:17.075Z,1.85
2023-05-06T19:58:45.491Z,2.28
2023-05-06T20:01:12.413Z,2.50
2023-05-06T20:03:39.250Z,0.93
2023-05-06T20:06:06.507Z,1.50
2023-05-06T20:08:33.067Z,2.08
2023-05-06T20:10:59.705Z,3.70
2023-05-06T20:13:26.727Z,3.05
2023-05-06T20:15:54.884Z,4.28
2023-05-06T20:18:21.552Z,2.28
2023-05-06T20:20:48.030Z,1.38
2023-05-06T20:23:14.920Z,2.83
2023-05-06T20:25:42.286Z,3.75
2023-05-06T20:28:08.833Z,2.00
2023-05-06T20:30:35.390Z,3.17
2023-05-06T20:33:01.982Z,2.25
2023-05-06T20:37:55.984Z,1.13
2023-05-06T20:40:22.806Z,1.33
2023-05-06T20:42:49.777Z,2.13
2023-05-06T20:45:16.409Z,3.33
2023-05-06T20:47:44.247Z,4.22
2023-05-06T20:50:16.677Z,1.30
2023-05-06T20:52:45.819Z,1.70
2023-05-06T20:55:14.672Z,1.90
2023-05-06T20:57:44.801Z,1.35
2023-05-06T21:00:12.205Z,1.55
2023-05-06T21:02:41.331Z,2.95
2023-05-06T21:05:09.500Z,2.50
2023-05-06T21:07:36.418Z,3.55
2023-05-06T21:10:05.579Z,2.38
2023-05-06T21:12:33.550Z,3.72
2023-05-06T21:15:00.725Z,2.10
2023-05-06T21:17:28.036Z,2.45
2023-05-06T21:19:55.207Z,1.23
2023-05-06T21:24:49.682Z,1.10
2023-05-06T21:27:16.548Z,1.40
2023-05-06T21:29:43.195Z,1.75
2023-05-06T21:32:09.964Z,1.65
2023-05-06T21:34:36.703Z,3.63
2023-05-06T21:37:03.332Z,2.60
2023-05-06T21:39:29.843Z,2.15
2023-05-06T21:41:56.486Z,2.08
2023-05-06T21:44:22.932Z,2.97
2023-05-06T21:46:49.472Z,2.83
2023-05-06T21:51:42.914Z,2.80
2023-05-06T21:54:09.871Z,2.38
2023-05-06T21:56:36.296Z,2.92
2023-05-06T21:59:02.928Z,1.80
2023-05-06T22:01:29.516Z,2.53
2023-05-06T22:03:56.562Z,4.32
2023-05-06T22:06:24.442Z,2.42
2023-05-06T22:08:52.004Z,2.33
2023-05-06T22:11:19.925Z,5.57
2023-05-06T22:13:50.030Z,4.18
2023-05-06T22:16:17.179Z,3.65
2023-05-06T22:18:45.786Z,1.58
2023-05-06T22:21:12.371Z,2.38
2023-05-06T22:23:40.448Z,3.00
2023-05-06T22:26:07.184Z,2.28
2023-05-06T22:28:34.077Z,1.25
2023-05-06T22:31:01.022Z,2.83
2023-05-06T22:33:27.713Z,1.58
2023-05-06T22:35:55.452Z,2.80
2023-05-06T22:38:22.280Z,2.10
2023-05-06T22:40:49.010Z,2.67
2023-05-06T22:43:15.718Z,2.03
2023-05-06T22:45:42.337Z,1.38
2023-05-06T22:48:09.070Z,2.45
2023-05-06T22:50:36.444Z,4.07
2023-05-06T22:53:13.741Z,1.85
2023-05-06T22:55:41.809Z,2.55
2023-05-06T22:58:08.838Z,4.00
2023-05-06T23:00:35.361Z,4.07
2023-05-06T23:03:03.006Z,2.55
2023-05-06T23:07:56.585Z,3.05
2023-05-06T23:10:23.041Z,4.70
2023-05-06T23:12:49.543Z,3.72
2023-05-06T23:15:16.120Z,2.28
2023-05-06T23:17:43.128Z,3.55
2023-05-06T23:20:11.841Z,2.05
2023-05-06T23:22:38.886Z,2.00
2023-05-06T23:25:07.954Z,5.35
2023-05-06T23:27:36.015Z,2.95
2023-05-06T23:30:02.639Z,3.08
2023-05-06T23:32:29.085Z,4.80
2023-05-06T23:34:55.912Z,3.60
2023-05-06T23:37:22.677Z,3.83
2023-05-06T23:39:49.384Z,3.33
2023-05-06T23:44:42.646Z,3.10
2023-05-06T23:47:09.776Z,2.72
2023-05-06T23:49:37.033Z,2.03
2023-05-06T23:54:30.305Z,2.65
2023-05-06T23:56:57.151Z,2.63
2023-05-06T23:59:23.623Z,2.83
